Time;durP1;ratioP1;P1;durP2;ratioP2;P2;SDS_P1;SDS_P2;PMS_P1;PMS_P2;Temp;Humidity;BMP_temperature;BMP_pressure;BME280_temperature;BME280_humidity;BME280_pressure;Samples;Min_cycle;Max_cycle;Signal;HPM_P1;HPM_P2
2023/12/26 00:14:46;;;;;;;4.47;1.70;;;;;;;8.58;75.33;99297.31;31879464;27;20130;-66
2023/12/26 00:29:46;;;;;;;3.78;1.73;;;;;;;8.66;75.37;99276.00;31878284;27;34079;-66
2023/12/26 00:44:47;;;;;;;2.78;1.45;;;;;;;8.80;75.49;99266.41;31877878;27;20070;-66
2023/12/26 00:59:47;;;;;;;3.05;1.50;;;;;;;8.96;75.32;99276.06;31876159;27;42827;-66
2023/12/26 01:14:47;;;;;;;4.03;1.40;;;;;;;9.07;75.30;99254.34;31874747;27;20031;-66
2023/12/26 01:29:49;;;;;;;3.67;1.90;;;;;;;9.06;75.18;99231.47;31872208;27;43047;-66
2023/12/26 01:44:49;;;;;;;5.30;1.77;;;;;;;9.09;75.66;99206.31;31883004;27;20507;-66
2023/12/26 01:59:49;;;;;;;4.15;2.03;;;;;;;9.06;75.63;99185.44;31892608;27;43045;-65
2023/12/26 02:14:50;;;;;;;2.55;1.25;;;;;;;9.04;75.14;99172.34;31891711;27;42965;-66
2023/12/26 02:29:53;;;;;;;1.95;1.10;;;;;;;9.10;75.10;99149.53;31891779;27;20028;-66
2023/12/26 02:44:53;;;;;;;2.53;1.30;;;;;;;9.17;75.32;99126.50;31890494;27;20051;-66
2023/12/26 02:59:53;;;;;;;2.25;1.42;;;;;;;9.21;74.93;99124.31;31887381;27;41670;-66
2023/12/26 03:14:53;;;;;;;3.58;1.30;;;;;;;9.22;74.94;99089.56;31885470;27;41438;-65
2023/12/26 03:29:54;;;;;;;1.58;1.20;;;;;;;9.23;75.24;99069.97;31884938;27;20423;-66
2023/12/26 03:44:54;;;;;;;1.35;0.80;;;;;;;9.23;75.03;99066.50;31883689;27;20058;-66
2023/12/26 03:59:54;;;;;;;1.67;0.90;;;;;;;9.27;75.08;99049.16;31881693;27;20476;-66
2023/12/26 04:14:55;;;;;;;0.82;0.57;;;;;;;9.34;74.82;99031.44;31878629;27;41843;-65
2023/12/26 04:29:55;;;;;;;0.70;0.47;;;;;;;9.42;74.58;99010.03;31879332;27;20099;-69
2023/12/26 04:44:56;;;;;;;0.65;0.50;;;;;;;9.54;74.61;99009.50;31877345;27;20508;-66
2023/12/26 04:59:56;;;;;;;0.43;0.30;;;;;;;9.80;73.83;98993.75;31875821;27;41379;-66
2023/12/26 05:14:56;;;;;;;0.40;0.30;;;;;;;9.91;73.14;99003.03;31872329;27;41697;-66
2023/12/26 05:29:56;;;;;;;0.77;0.40;;;;;;;10.01;72.98;98999.22;31873204;27;40124;-65
2023/12/26 05:44:57;;;;;;;0.77;0.40;;;;;;;10.07;72.11;98996.56;31871259;27;20056;-66
2023/12/26 05:59:57;;;;;;;0.50;0.30;;;;;;;10.12;72.34;99004.78;31870543;27;42948;-66
2023/12/26 06:14:57;;;;;;;1.27;0.60;;;;;;;10.14;71.87;99013.41;31869325;27;20028;-65
2023/12/26 06:29:58;;;;;;;0.52;0.45;;;;;;;9.99;71.94;99018.84;31876872;27;41712;-66
2023/12/26 06:44:58;;;;;;;2.03;0.50;;;;;;;9.99;73.25;99020.66;31887480;27;20047;-66
2023/12/26 06:59:58;;;;;;;1.42;0.50;;;;;;;9.83;72.73;99019.97;31886388;27;42934;-66
2023/12/26 07:14:59;;;;;;;0.88;0.60;;;;;;;9.80;73.35;99038.97;31884803;27;20028;-65
2023/12/26 07:29:59;;;;;;;2.65;0.70;;;;;;;9.87;72.16;99052.31;31883102;27;43122;-65
2023/12/26 07:44:59;;;;;;;0.80;0.68;;;;;;;9.92;72.31;99065.03;31881351;27;20044;-66
2023/12/26 08:00:00;;;;;;;3.92;0.90;;;;;;;10.18;72.11;99090.19;31879768;27;20032;-66
2023/12/26 08:15:00;;;;;;;1.25;0.70;;;;;;;10.48;71.02;99115.59;31877334;27;43224;-66
2023/12/26 08:30:00;;;;;;;3.42;1.30;;;;;;;10.59;70.75;99142.69;31876396;27;41226;-67
2023/12/26 08:45:01;;;;;;;2.08;0.80;;;;;;;10.64;70.52;99164.25;31875618;27;20088;-66
2023/12/26 09:00:01;;;;;;;2.38;1.40;;;;;;;10.73;69.42;99203.03;31873596;27;20024;-67
2023/12/26 09:15:01;;;;;;;2.55;1.30;;;;;;;10.77;69.21;99203.44;31872174;27;42884;-65
2023/12/26 09:30:02;;;;;;;1.38;0.60;;;;;;;10.96;68.42;99228.56;31872835;27;20063;-67
2023/12/26 09:45:03;;;;;;;1.63;0.88;;;;;;;11.20;67.42;99229.13;31869847;27;20432;-66
2023/12/26 10:00:04;;;;;;;2.33;0.90;;;;;;;11.42;65.78;99230.63;31871947;27;20945;-67
2023/12/26 10:15:05;;;;;;;1.25;0.60;;;;;;;11.60;64.63;99245.25;31890540;27;20175;-65
2023/12/26 10:30:06;;;;;;;1.05;0.57;;;;;;;11.69;63.96;99276.91;31888077;27;20256;-66
2023/12/26 10:45:08;;;;;;;1.60;0.68;;;;;;;11.79;63.18;99252.50;31885839;27;20133;-66
2023/12/26 11:00:49;;;;;;;0.77;0.50;;;;;;;11.75;62.60;99307.28;31886426;27;20031;-66
2023/12/26 13:55:17;;;;;;;2.35;1.20;;;;;;;9.51;67.17;99521.19;31890069;27;20032;-67
2023/12/26 14:10:17;;;;;;;3.83;1.30;;;;;;;9.28;67.59;99545.13;31890024;27;40733;-67
2023/12/26 14:25:18;;;;;;;3.55;1.33;;;;;;;8.81;68.68;99560.22;31889145;27;42896;-67
2023/12/26 14:40:18;;;;;;;5.82;1.67;;;;;;;8.60;69.39;99558.16;31886861;27;40640;-66
2023/12/26 14:55:18;;;;;;;4.28;1.27;;;;;;;8.65;70.02;99574.38;31887379;27;20035;-66
2023/12/26 15:10:19;;;;;;;5.45;2.10;;;;;;;8.70;70.05;99632.31;31884720;27;41541;-66
2023/12/26 15:25:19;;;;;;;5.28;1.10;;;;;;;8.40;69.94;99640.81;31884092;27;20030;-66
2023/12/26 15:40:19;;;;;;;5.40;1.40;;;;;;;7.85;70.55;99652.16;31881552;27;20052;-66
2023/12/26 15:55:22;;;;;;;8.65;3.63;;;;;;;7.55;72.07;99679.13;31881750;27;27392;-67
2023/12/26 16:10:23;;;;;;;4.47;2.65;;;;;;;7.41;71.90;99674.47;31877626;27;20081;-67
2023/12/26 16:25:23;;;;;;;5.22;2.40;;;;;;;7.29;71.85;99698.63;31877851;27;20081;-67
2023/12/26 16:40:23;;;;;;;4.30;1.80;;;;;;;7.05;71.38;99704.69;31875603;27;34830;-67
2023/12/26 16:55:24;;;;;;;5.97;3.22;;;;;;;6.76;71.92;99703.19;31875569;27;20036;-67
2023/12/26 17:10:25;;;;;;;4.00;2.13;;;;;;;6.91;71.74;99726.44;31872442;27;20062;-67
2023/12/26 17:25:25;;;;;;;6.68;3.25;;;;;;;6.90;70.91;99749.47;31872968;27;41865;-66
2023/12/26 17:40:26;;;;;;;3.47;2.00;;;;;;;6.82;70.39;99752.06;31870432;27;40431;-66
2023/12/26 17:55:27;;;;;;;4.25;1.75;;;;;;;6.85;70.14;99786.16;31870442;27;20035;-66
2023/12/26 18:10:27;;;;;;;5.07;1.90;;;;;;;6.83;69.13;99819.06;31867496;27;35170;-66
2023/12/26 18:25:28;;;;;;;5.05;2.15;;;;;;;6.68;68.16;99822.25;31875918;27;20039;-67
2023/12/26 18:40:28;;;;;;;2.17;1.25;;;;;;;6.64;67.74;99846.56;31888252;27;20048;-67
2023/12/26 18:55:29;;;;;;;5.10;1.77;;;;;;;6.52;66.30;99860.03;31886999;27;20526;-65
2023/12/26 19:10:30;;;;;;;2.40;1.50;;;;;;;6.41;66.49;99861.09;31884782;27;20107;-68
2023/12/26 19:25:30;;;;;;;4.43;1.30;;;;;;;6.36;65.88;99852.78;31884431;27;20091;-65
2023/12/26 19:40:31;;;;;;;2.50;1.30;;;;;;;6.25;65.50;99872.34;31879696;27;20120;-65
2023/12/26 19:55:31;;;;;;;5.32;1.38;;;;;;;6.23;65.17;99876.97;31880413;27;42617;-68
2023/12/26 20:10:36;;;;;;;5.00;1.73;;;;;;;6.28;65.65;99908.25;31879589;27;20085;-67
2023/12/26 20:25:37;;;;;;;4.18;1.55;;;;;;;6.60;65.26;99904.25;31879673;27;20036;-67
2023/12/26 20:40:37;;;;;;;4.93;1.50;;;;;;;6.91;64.72;99920.56;31875494;27;33277;-68
2023/12/26 20:55:37;;;;;;;3.38;1.40;;;;;;;7.09;64.53;99941.75;31873583;27;20042;-65
2023/12/26 21:10:38;;;;;;;3.05;1.48;;;;;;;7.20;63.92;99945.13;31873279;27;20035;-67
2023/12/26 21:25:38;;;;;;;7.63;2.08;;;;;;;7.20;63.69;99974.28;31872488;27;20460;-66
2023/12/26 21:40:38;;;;;;;6.38;1.42;;;;;;;7.20;63.24;99990.19;31869847;27;42817;-66
2023/12/26 21:55:39;;;;;;;3.20;1.30;;;;;;;7.17;62.26;100011.69;31871082;27;41614;-66
2023/12/26 22:10:39;;;;;;;3.28;1.23;;;;;;;6.94;62.56;100036.81;31893256;27;20107;-66
2023/12/26 22:25:39;;;;;;;3.90;1.30;;;;;;;7.14;62.20;100049.09;31891259;27;20030;-67
2023/12/26 22:40:40;;;;;;;3.22;1.10;;;;;;;7.15;61.26;100056.03;31888384;27;20039;-66
2023/12/26 22:55:40;;;;;;;3.30;1.20;;;;;;;7.11;61.42;100093.41;31888032;27;20024;-66
2023/12/26 23:10:42;;;;;;;4.53;1.33;;;;;;;6.95;60.85;100098.53;31885874;27;42709;-67
2023/12/26 23:25:42;;;;;;;2.35;0.98;;;;;;;6.88;61.01;100145.16;31885933;27;20200;-68
2023/12/26 23:40:42;;;;;;;2.85;0.73;;;;;;;6.77;60.62;100167.34;31883437;27;40477;-67
2023/12/26 23:55:43;;;;;;;6.57;1.27;;;;;;;6.56;61.81;100194.88;31883251;27;26796;-66
